Time;durP1;ratioP1;P1;durP2;ratioP2;P2;SDS_P1;SDS_P2;PMS_P1;PMS_P2;Temp;Humidity;BMP_temperature;BMP_pressure;BME280_temperature;BME280_humidity;BME280_pressure;Samples;Min_cycle;Max_cycle;Signal;HPM_P1;HPM_P2
2022/05/03 00:00:54;;;;;;;20.55;8.77;;;;;;;-149.78;100.00;50397.13;4735552;30;20051;-73
2022/05/03 00:03:26;;;;;;;19.17;8.75;;;;;;;-149.78;100.00;50344.31;4735161;30;20484;-73
2022/05/03 00:06:20;;;;;;;20.15;8.35;;;;;;;-149.78;100.00;50393.22;4735023;30;20040;-73
2022/05/03 00:08:52;;;;;;;16.77;7.88;;;;;;;-149.78;100.00;50358.00;4735383;30;20044;-73
2022/05/03 00:11:50;;;;;;;22.15;8.77;;;;;;;-149.78;100.00;50361.91;4735225;30;20049;-72
2022/05/03 00:14:25;;;;;;;20.65;8.23;;;;;;;-149.78;100.00;50399.09;4735340;30;20098;-73
2022/05/03 00:16:52;;;;;;;18.90;8.90;;;;;;;-149.78;100.00;50389.31;4735106;30;20044;-73
2022/05/03 00:19:18;;;;;;;17.90;8.98;;;;;;;-149.78;100.00;50393.22;4718419;30;20051;-73
2022/05/03 00:21:45;;;;;;;18.70;9.25;;;;;;;-149.78;100.00;50381.47;4735065;30;20044;-73
2022/05/03 00:24:11;;;;;;;25.63;9.50;;;;;;;-149.78;100.00;50416.69;4735091;30;20084;-72
2022/05/03 00:26:37;;;;;;;16.63;8.85;;;;;;;-149.78;100.00;50361.91;4735061;30;20079;-73
2022/05/03 00:29:03;;;;;;;18.20;8.23;;;;;;;-149.78;100.00;50403.00;4735110;30;20068;-73
2022/05/03 00:31:30;;;;;;;24.40;10.00;;;;;;;-149.78;100.00;50416.69;4734884;30;20041;-73
2022/05/03 00:33:58;;;;;;;23.40;10.25;;;;;;;-149.78;100.00;50359.97;4719477;30;20040;-72
2022/05/03 00:36:24;;;;;;;21.23;10.18;;;;;;;-149.78;100.00;50373.66;4734881;30;20040;-73
2022/05/03 00:38:51;;;;;;;24.63;11.15;;;;;;;-149.78;100.00;50389.31;4719330;30;20055;-73
2022/05/03 00:41:30;;;;;;;22.48;10.18;;;;;;;-149.78;100.00;50358.00;4733672;30;20040;-73
2022/05/03 00:47:07;;;;;;;25.73;9.65;;;;;;;-149.78;100.00;50363.88;4734940;30;20039;-73
2022/05/03 00:49:57;;;;;;;22.25;11.07;;;;;;;-149.78;100.00;50373.66;4734471;30;20033;-73
2022/05/03 00:52:32;;;;;;;20.45;10.07;;;;;;;-149.78;100.00;50412.78;4734575;30;20056;-73
2022/05/03 00:55:35;;;;;;;21.05;9.80;;;;;;;-149.78;100.00;50404.94;4718946;30;20056;-73
2022/05/03 00:58:42;;;;;;;22.17;10.38;;;;;;;-149.78;100.00;50389.31;4718941;30;20557;-73
2022/05/03 01:01:43;;;;;;;22.60;9.50;;;;;;;-149.78;100.00;50420.59;4680373;30;20407;-73
2022/05/03 01:04:12;;;;;;;24.23;10.65;;;;;;;-149.78;100.00;50377.56;4723792;30;20057;-72
2022/05/03 01:07:05;;;;;;;21.33;10.85;;;;;;;-149.78;100.00;50389.31;4733645;30;20036;-72
2022/05/03 01:09:40;;;;;;;30.67;11.98;;;;;;;-149.78;100.00;50416.69;4734220;30;20106;-72
2022/05/03 01:12:25;;;;;;;24.48;12.07;;;;;;;-149.78;100.00;50389.31;4715759;30;20053;-72
2022/05/03 01:15:17;;;;;;;27.52;12.15;;;;;;;-149.78;100.00;50408.84;4716984;30;20038;-72
2022/05/03 01:17:45;;;;;;;26.30;11.77;;;;;;;-149.78;100.00;50385.38;4715492;30;20037;-72
2022/05/03 01:20:16;;;;;;;30.00;13.68;;;;;;;-149.78;100.00;50395.16;4716778;30;20099;-72
2022/05/03 01:23:02;;;;;;;32.35;13.60;;;;;;;-149.78;100.00;50408.84;4716598;30;20182;-72
2022/05/03 01:25:52;;;;;;;25.08;11.82;;;;;;;-149.78;100.00;50385.38;4715611;30;20041;-71
2022/05/03 01:28:40;;;;;;;24.00;11.68;;;;;;;-149.78;100.00;50408.84;4716634;30;20098;-72
2022/05/03 01:31:11;;;;;;;25.95;11.43;;;;;;;-149.78;100.00;50393.22;4716621;30;20405;-72
2022/05/03 01:33:42;;;;;;;21.08;10.38;;;;;;;-149.78;100.00;50399.09;4716396;30;20110;-72
2022/05/03 01:36:09;;;;;;;24.33;9.90;;;;;;;-149.78;100.00;50401.03;4716563;30;20072;-71
2022/05/03 01:38:47;;;;;;;21.38;10.07;;;;;;;-149.78;100.00;50397.13;4715290;30;20194;-71
2022/05/03 01:41:33;;;;;;;18.60;9.52;;;;;;;-149.78;100.00;50410.81;4715389;30;20443;-71
2022/05/03 01:44:09;;;;;;;21.20;8.98;;;;;;;-149.78;100.00;50385.38;4716433;30;20470;-71
2022/05/03 01:46:37;;;;;;;18.95;9.48;;;;;;;-149.78;100.00;50412.78;4716409;30;20040;-71
2022/05/03 01:52:17;;;;;;;21.08;9.02;;;;;;;-149.78;100.00;50397.13;4716482;30;20045;-71
2022/05/03 01:55:07;;;;;;;19.58;9.10;;;;;;;-149.78;100.00;50426.47;4716255;30;20040;-71
2022/05/03 01:58:00;;;;;;;17.65;9.27;;;;;;;-149.78;100.00;50459.72;4709181;30;20462;-71
2022/05/03 02:00:27;;;;;;;22.40;8.52;;;;;;;-149.78;100.00;50391.25;4698886;30;20038;-71
2022/05/03 02:02:59;;;;;;;17.98;8.88;;;;;;;-149.78;100.00;50404.94;4710702;30;20045;-71
2022/05/03 02:05:52;;;;;;;15.52;8.38;;;;;;;-149.78;100.00;50416.69;4716171;30;20029;-71
2022/05/03 02:08:20;;;;;;;19.65;8.50;;;;;;;-149.78;100.00;50432.31;4716327;30;20041;-71
2022/05/03 02:11:17;;;;;;;18.73;7.53;;;;;;;-149.78;100.00;50381.47;4723728;30;20160;-71
2022/05/03 02:17:04;;;;;;;16.73;8.27;;;;;;;-149.78;100.00;50412.78;4733550;30;20525;-71
2022/05/03 02:19:46;;;;;;;16.45;7.80;;;;;;;-149.78;100.00;50416.69;4717367;30;20438;-72
2022/05/03 02:22:30;;;;;;;20.17;7.80;;;;;;;-149.78;100.00;50350.19;4737066;30;20043;-71
2022/05/03 02:25:24;;;;;;;19.35;8.60;;;;;;;-149.78;100.00;50385.38;4736907;30;20044;-71
2022/05/03 02:27:59;;;;;;;18.65;8.38;;;;;;;-149.78;100.00;50414.72;4721653;30;20041;-71
2022/05/03 02:30:27;;;;;;;16.75;7.78;;;;;;;-149.78;100.00;50377.56;4719423;30;20075;-71
2022/05/03 02:33:17;;;;;;;22.70;9.32;;;;;;;-149.78;100.00;50397.13;4719466;30;20048;-71
2022/05/03 02:35:49;;;;;;;15.48;8.30;;;;;;;-149.78;100.00;50406.91;4736141;30;20048;-71
2022/05/03 02:38:20;;;;;;;20.90;8.60;;;;;;;-149.78;100.00;50381.47;4736725;30;20485;-71
2022/05/03 02:40:49;;;;;;;17.55;8.73;;;;;;;-149.78;100.00;50399.09;4736776;30;20043;-71
2022/05/03 02:43:17;;;;;;;20.75;10.27;;;;;;;-149.78;100.00;50420.59;4736605;30;20060;-71
2022/05/03 02:45:55;;;;;;;14.60;8.52;;;;;;;-149.78;100.00;50416.69;4736708;30;20048;-71
2022/05/03 02:48:38;;;;;;;21.02;8.70;;;;;;;-149.78;100.00;50373.66;4736753;30;20044;-71
2022/05/03 02:51:07;;;;;;;24.20;9.90;;;;;;;-149.78;100.00;50389.31;4735304;30;20044;-71
2022/05/03 02:54:23;;;;;;;19.08;9.68;;;;;;;-149.78;100.00;50385.38;4736553;30;20054;-71
2022/05/03 02:56:59;;;;;;;22.77;9.77;;;;;;;-149.78;100.00;50403.00;4699621;30;20041;-72
2022/05/03 03:02:36;;;;;;;25.75;9.18;;;;;;;-149.78;100.00;50416.69;4728267;30;20554;-71
2022/05/03 03:05:07;;;;;;;24.48;9.00;;;;;;;-149.78;100.00;50440.16;4718962;30;20105;-72
2022/05/03 03:07:46;;;;;;;23.17;11.07;;;;;;;-149.78;100.00;50420.59;4719581;30;20061;-72
2022/05/03 03:10:19;;;;;;;22.02;9.07;;;;;;;-149.78;100.00;50416.69;4733358;30;20060;-72
2022/05/03 03:12:55;;;;;;;24.38;10.38;;;;;;;-149.78;100.00;50436.25;4717939;30;20035;-72
2022/05/03 03:15:27;;;;;;;20.88;9.95;;;;;;;-149.78;100.00;50422.56;4736135;30;20041;-71
2022/05/03 03:17:55;;;;;;;22.27;9.60;;;;;;;-149.78;100.00;50397.13;4736147;30;20178;-71
2022/05/03 03:20:26;;;;;;;25.73;10.73;;;;;;;-149.78;100.00;50408.84;4729300;30;20060;-72
2022/05/03 03:22:52;;;;;;;22.03;10.53;;;;;;;-149.78;100.00;50401.03;4735977;30;20178;-72
2022/05/03 03:25:20;;;;;;;22.52;10.23;;;;;;;-149.78;100.00;50436.25;4732954;30;20647;-72
2022/05/03 03:27:49;;;;;;;20.60;9.30;;;;;;;-149.78;100.00;50410.81;4735905;30;20109;-72
2022/05/03 03:30:16;;;;;;;22.00;9.95;;;;;;;-149.78;100.00;50389.31;4719476;30;20040;-72
2022/05/03 03:32:48;;;;;;;26.05;10.10;;;;;;;-149.78;100.00;50426.47;4719879;30;20037;-71
2022/05/03 03:35:15;;;;;;;21.08;8.45;;;;;;;-149.78;100.00;50373.66;4736113;30;20121;-73
2022/05/03 03:37:46;;;;;;;20.90;8.38;;;;;;;-149.78;100.00;50416.69;4720372;30;20044;-72
2022/05/03 03:40:13;;;;;;;21.97;8.63;;;;;;;-149.78;100.00;50428.41;4735992;30;20096;-72
2022/05/03 03:42:42;;;;;;;19.25;8.27;;;;;;;-149.78;100.00;50401.03;4735643;30;20336;-72
2022/05/03 03:45:09;;;;;;;16.63;8.02;;;;;;;-149.78;100.00;50389.31;4735857;30;20040;-67
2022/05/03 03:47:36;;;;;;;18.08;7.93;;;;;;;-149.78;100.00;50389.31;4735874;30;20059;-67
2022/05/03 03:50:03;;;;;;;20.45;8.23;;;;;;;-149.78;100.00;50373.66;4735669;30;20044;-67
2022/05/03 03:52:30;;;;;;;15.98;7.63;;;;;;;-149.78;100.00;50395.16;4735744;30;20036;-67
2022/05/03 03:54:57;;;;;;;16.80;8.50;;;;;;;-149.78;100.00;50420.59;4735706;30;20063;-67
2022/05/03 03:57:24;;;;;;;18.10;8.70;;;;;;;-149.78;100.00;50432.31;4735633;30;20041;-67
2022/05/03 03:59:49;;;;;;;17.13;8.27;;;;;;;-149.78;100.00;50397.13;4722057;30;20056;-66
2022/05/03 04:02:16;;;;;;;18.75;8.20;;;;;;;-149.78;100.00;50408.84;4718322;30;20044;-66
2022/05/03 04:04:43;;;;;;;17.67;8.60;;;;;;;-149.78;100.00;50412.78;4718307;30;20049;-66
2022/05/03 04:07:10;;;;;;;20.50;8.80;;;;;;;-149.78;100.00;50408.84;4718257;30;20122;-66
2022/05/03 04:09:36;;;;;;;16.85;8.35;;;;;;;-149.78;100.00;50422.56;4722617;30;20041;-67
2022/05/03 04:12:04;;;;;;;21.70;9.70;;;;;;;-149.78;100.00;50403.00;4735145;30;20139;-67
2022/05/03 04:14:30;;;;;;;23.98;9.98;;;;;;;-149.78;100.00;50406.91;4735227;30;20047;-67
2022/05/03 04:16:57;;;;;;;20.48;9.27;;;;;;;-149.78;100.00;50424.50;4735243;30;20094;-67
2022/05/03 04:19:23;;;;;;;23.48;9.95;;;;;;;-149.78;100.00;50432.31;4735083;30;20048;-67
2022/05/03 04:21:50;;;;;;;21.05;9.25;;;;;;;-149.78;100.00;50401.03;4735129;30;20041;-67
2022/05/03 04:24:17;;;;;;;20.65;9.38;;;;;;;-149.78;100.00;50428.41;4735113;30;20048;-67
2022/05/03 04:26:42;;;;;;;26.70;9.90;;;;;;;-149.78;100.00;50397.13;4735112;30;20371;-66
2022/05/03 04:29:09;;;;;;;24.67;9.63;;;;;;;-149.78;100.00;50436.25;4735140;30;20489;-66
2022/05/03 04:31:35;;;;;;;22.85;9.10;;;;;;;-149.78;100.00;50459.72;4719518;30;20131;-67
2022/05/03 04:34:03;;;;;;;25.13;9.73;;;;;;;-149.78;100.00;50447.97;4722103;30;20067;-66
2022/05/03 04:36:33;;;;;;;20.95;9.65;;;;;;;-149.78;100.00;50393.22;4717574;30;20049;-67
2022/05/03 04:38:59;;;;;;;22.08;9.73;;;;;;;-149.78;100.00;50389.31;4701942;30;20112;-66
2022/05/03 04:41:26;;;;;;;21.27;9.45;;;;;;;-149.78;100.00;50401.03;4701683;30;20053;-66
2022/05/03 04:43:52;;;;;;;22.02;9.15;;;;;;;-149.78;100.00;50420.59;4733690;30;20412;-66
2022/05/03 04:46:18;;;;;;;22.63;9.10;;;;;;;-149.78;100.00;50406.91;4734752;30;20084;-66
2022/05/03 04:48:44;;;;;;;17.77;8.85;;;;;;;-149.78;100.00;50416.69;4734669;30;20567;-66
2022/05/03 04:51:17;;;;;;;23.33;9.35;;;;;;;-149.78;100.00;50428.41;4734777;30;20044;-67
2022/05/03 04:53:44;;;;;;;23.33;9.25;;;;;;;-149.78;100.00;50389.31;4719182;30;20044;-67
2022/05/03 04:56:16;;;;;;;20.73;8.82;;;;;;;-149.78;100.00;50426.47;4734643;30;20044;-66
2022/05/03 04:58:41;;;;;;;;;;;;;;;-149.78;100.00;50426.47;4734968;30;20079;-66
2022/05/03 05:01:07;;;;;;;21.38;9.02;;;;;;;-149.78;100.00;50438.19;4734593;30;19988;-66
2022/05/03 05:03:33;;;;;;;26.75;10.05;;;;;;;-149.78;100.00;50436.25;4734464;30;20068;-66
2022/05/03 05:05:59;;;;;;;23.15;9.50;;;;;;;-149.78;100.00;50414.72;4734426;30;20044;-66
2022/05/03 05:08:24;;;;;;;23.92;9.93;;;;;;;-149.78;100.00;50412.78;4733250;30;20052;-66
2022/05/03 05:10:50;;;;;;;24.60;11.38;;;;;;;-149.78;100.00;50363.88;4734116;30;20056;-66
2022/05/03 05:13:16;;;;;;;23.40;9.15;;;;;;;-149.78;100.00;50401.03;4734395;30;20509;-66
2022/05/03 05:15:41;;;;;;;19.70;8.15;;;;;;;-149.78;100.00;50391.25;4733237;30;20157;-66
2022/05/03 05:18:08;;;;;;;19.67;8.63;;;;;;;-149.78;100.00;50428.41;4734373;30;20141;-66
2022/05/03 05:20:34;;;;;;;24.70;9.68;;;;;;;-149.78;100.00;50401.03;4734126;30;20045;-66
2022/05/03 05:23:00;;;;;;;24.55;10.82;;;;;;;-149.78;100.00;50406.91;4733846;30;20044;-66
2022/05/03 05:25:26;;;;;;;22.35;11.50;;;;;;;-149.78;100.00;50428.41;4733888;30;20081;-67
2022/05/03 05:27:51;;;;;;;22.75;11.00;;;;;;;-149.78;100.00;50432.31;4718272;30;20052;-67
2022/05/03 05:30:17;;;;;;;27.27;11.02;;;;;;;-149.78;100.00;50424.50;4734053;30;20049;-66
2022/05/03 05:32:43;;;;;;;25.23;11.43;;;;;;;-149.78;100.00;50440.16;4730442;30;20045;-67
2022/05/03 05:35:09;;;;;;;24.25;10.30;;;;;;;-149.78;100.00;50424.50;4716664;30;20045;-66
2022/05/03 05:37:35;;;;;;;22.08;10.32;;;;;;;-149.78;100.00;50420.59;4716609;30;20143;-66
2022/05/03 05:40:00;;;;;;;29.50;10.63;;;;;;;-149.78;100.00;50436.25;4716565;30;20097;-66
2022/05/03 05:42:26;;;;;;;31.35;11.48;;;;;;;-149.78;100.00;50451.88;4706812;30;20090;-66
2022/05/03 05:44:52;;;;;;;23.73;12.18;;;;;;;-149.78;100.00;50381.47;4731568;30;20512;-66
2022/05/03 05:47:18;;;;;;;25.40;11.32;;;;;;;-149.78;100.00;50436.25;4699973;30;20037;-66
2022/05/03 05:49:44;;;;;;;23.70;11.27;;;;;;;-149.78;100.00;50436.25;4715764;30;20038;-66
2022/05/03 05:54:54;;;;;;;29.65;11.95;;;;;;;-149.78;100.00;50440.16;4699889;30;20052;-66
2022/05/03 05:57:20;;;;;;;31.42;12.35;;;;;;;-149.78;100.00;50444.06;4716255;30;20045;-67
2022/05/03 05:59:47;;;;;;;26.52;12.82;;;;;;;-149.78;100.00;50404.94;4715562;30;20037;-67
2022/05/03 06:02:14;;;;;;;32.53;12.45;;;;;;;-149.78;100.00;50459.72;4700337;30;20041;-67
2022/05/03 06:04:40;;;;;;;28.33;12.00;;;;;;;-149.78;100.00;50401.03;4699663;30;20052;-67
2022/05/03 06:07:06;;;;;;;26.58;12.63;;;;;;;-149.78;100.00;50393.22;4714977;30;20051;-67
2022/05/03 06:09:34;;;;;;;30.17;13.45;;;;;;;-149.78;100.00;50393.22;4704333;30;20041;-66
2022/05/03 06:11:59;;;;;;;28.58;13.15;;;;;;;-149.78;100.00;50446.03;4700833;30;20053;-66
2022/05/03 06:14:25;;;;;;;33.45;13.57;;;;;;;-149.78;100.00;50408.84;4698641;30;20045;-66
2022/05/03 06:16:53;;;;;;;29.77;12.90;;;;;;;-149.78;100.00;50404.94;4710247;30;20467;-66
2022/05/03 06:19:20;;;;;;;28.00;13.02;;;;;;;-149.78;100.00;50412.78;4716463;30;20106;-65
2022/05/03 06:21:46;;;;;;;35.00;12.13;;;;;;;-149.78;100.00;50426.47;4715265;30;20441;-66
2022/05/03 06:24:11;;;;;;;29.63;13.13;;;;;;;-149.78;100.00;50428.41;4713724;30;20041;-67
2022/05/03 06:26:37;;;;;;;33.03;14.02;;;;;;;-149.78;100.00;50424.50;4714697;30;20427;-67
2022/05/03 06:29:08;;;;;;;30.00;13.75;;;;;;;-149.78;100.00;50412.78;4714420;30;20131;-66
2022/05/03 06:31:38;;;;;;;32.45;14.40;;;;;;;-149.78;100.00;50399.09;4699344;30;20048;-66
2022/05/03 06:34:06;;;;;;;33.05;14.95;;;;;;;-149.78;100.00;50395.16;4709149;30;20075;-65
2022/05/03 06:36:35;;;;;;;33.08;14.80;;;;;;;-149.78;100.00;50404.94;4715688;30;20441;-65
2022/05/03 06:39:04;;;;;;;29.75;14.00;;;;;;;-149.78;100.00;50403.00;4715844;30;20041;-67
2022/05/03 06:41:30;;;;;;;35.13;15.20;;;;;;;-149.78;100.00;50412.78;4715385;30;20052;-67
2022/05/03 06:43:58;;;;;;;35.90;15.45;;;;;;;-149.78;100.00;50412.78;4731772;30;20045;-67
2022/05/03 06:46:26;;;;;;;31.05;14.43;;;;;;;-149.78;100.00;50422.56;4707073;30;20498;-67
2022/05/03 06:48:52;;;;;;;31.98;14.88;;;;;;;-149.78;100.00;50393.22;4706510;30;20041;-67
2022/05/03 06:51:18;;;;;;;33.97;16.25;;;;;;;-149.78;100.00;50404.94;4705229;30;20049;-67
2022/05/03 06:53:45;;;;;;;38.40;16.25;;;;;;;-149.78;100.00;50428.41;4689278;30;20114;-67
2022/05/03 06:56:11;;;;;;;37.22;16.77;;;;;;;-149.78;100.00;50401.03;4704213;30;20072;-67
2022/05/03 06:58:36;;;;;;;37.08;16.33;;;;;;;-149.78;100.00;50377.56;4704081;30;20495;-67
2022/05/03 07:01:10;;;;;;;43.03;18.52;;;;;;;-149.78;100.00;50354.09;4692670;30;20044;-66
2022/05/03 07:03:37;;;;;;;38.25;16.85;;;;;;;-149.78;100.00;50420.59;4697908;30;20072;-66
2022/05/03 07:06:03;;;;;;;39.75;16.98;;;;;;;-149.78;100.00;50399.09;4715135;30;20044;-67
2022/05/03 07:08:29;;;;;;;37.88;17.20;;;;;;;-149.78;100.00;50412.78;4715158;30;20481;-66
2022/05/03 07:10:55;;;;;;;40.78;17.80;;;;;;;-149.78;100.00;50416.69;4715741;30;20057;-66
2022/05/03 07:13:23;;;;;;;40.83;17.10;;;;;;;-149.78;100.00;50420.59;4716842;30;20397;-66
2022/05/03 07:15:54;;;;;;;38.25;16.55;;;;;;;-149.78;100.00;50399.09;4717506;30;20433;-66
2022/05/03 07:23:49;;;;;;;29.60;13.93;;;;;;;-149.78;100.00;50447.97;4716444;30;20497;-66
2022/05/03 07:26:15;;;;;;;28.75;14.32;;;;;;;-149.78;100.00;50401.03;4685770;30;20199;-66
2022/05/03 07:28:41;;;;;;;29.02;13.18;;;;;;;-149.78;100.00;50397.13;4716107;30;20144;-66
2022/05/03 07:31:11;;;;;;;36.72;13.88;;;;;;;-149.78;100.00;50395.16;4684614;30;20037;-66
2022/05/03 07:33:37;;;;;;;28.17;13.27;;;;;;;-149.78;100.00;50412.78;4707614;30;20037;-66
2022/05/03 07:36:03;;;;;;;29.15;13.32;;;;;;;-149.78;100.00;50416.69;4717367;30;20099;-66
2022/05/03 07:38:29;;;;;;;28.58;13.25;;;;;;;-149.78;100.00;50397.13;4702157;30;20040;-66
2022/05/03 07:40:59;;;;;;;30.88;13.65;;;;;;;-149.78;100.00;50401.03;4702728;30;20367;-66
2022/05/03 07:43:25;;;;;;;27.55;13.57;;;;;;;-149.78;100.00;50418.63;4721416;30;20426;-67
2022/05/03 07:45:51;;;;;;;26.63;13.25;;;;;;;-149.78;100.00;50408.84;4717371;30;20043;-67
2022/05/03 07:48:16;;;;;;;27.92;12.20;;;;;;;-149.78;100.00;50397.13;4717801;30;20468;-67
2022/05/03 07:50:44;;;;;;;25.30;11.93;;;;;;;-149.78;100.00;50432.31;4718164;30;20045;-67
2022/05/03 07:53:10;;;;;;;23.23;11.50;;;;;;;-149.78;100.00;50399.09;4718093;30;20060;-67
2022/05/03 07:55:36;;;;;;;21.83;11.32;;;;;;;-149.78;100.00;50365.84;4717082;30;20040;-65
2022/05/03 07:58:02;;;;;;;27.05;11.23;;;;;;;-149.78;100.00;50406.91;4717054;30;20037;-66
2022/05/03 08:00:28;;;;;;;20.38;10.05;;;;;;;-149.78;100.00;50412.78;4717958;30;20045;-66
2022/05/03 08:02:56;;;;;;;22.23;10.48;;;;;;;-149.78;100.00;50383.44;4717749;30;20868;-66
2022/05/03 08:05:22;;;;;;;20.80;10.18;;;;;;;-149.78;100.00;50428.41;4702253;30;20148;-66
2022/05/03 08:07:47;;;;;;;20.70;10.02;;;;;;;-149.78;100.00;50408.84;4717734;30;20049;-66
2022/05/03 08:10:14;;;;;;;24.15;11.02;;;;;;;-149.78;100.00;50403.00;4726840;30;20122;-66
2022/05/03 08:12:40;;;;;;;21.35;9.77;;;;;;;-149.78;100.00;50404.94;4719593;30;20040;-66
2022/05/03 08:15:06;;;;;;;19.50;10.32;;;;;;;-149.78;100.00;50418.63;4720724;30;20048;-66
2022/05/03 08:17:32;;;;;;;21.95;10.25;;;;;;;-149.78;100.00;50399.09;4701058;30;20099;-66
2022/05/03 08:19:58;;;;;;;17.13;9.07;;;;;;;-149.78;100.00;50379.53;4708881;30;20041;-66
2022/05/03 08:22:25;;;;;;;27.38;9.80;;;;;;;-149.78;100.00;50416.69;4717135;30;20037;-66
2022/05/03 08:24:53;;;;;;;19.13;9.25;;;;;;;-149.78;100.00;50401.03;4717573;30;20128;-66
2022/05/03 08:27:19;;;;;;;18.60;8.93;;;;;;;-149.78;100.00;50404.94;4717384;30;20079;-66
2022/05/03 08:29:45;;;;;;;18.10;8.70;;;;;;;-149.78;100.00;50410.81;4686405;30;20060;-66
2022/05/03 08:32:11;;;;;;;17.45;9.13;;;;;;;-149.78;100.00;50420.59;4715695;30;20181;-66
2022/05/03 08:34:37;;;;;;;20.60;8.95;;;;;;;-149.78;100.00;50401.03;4717364;30;20053;-66
2022/05/03 08:42:32;;;;;;;20.70;8.82;;;;;;;-149.78;100.00;50404.94;4724017;30;20048;-66
2022/05/03 08:45:00;;;;;;;17.42;9.20;;;;;;;-149.78;100.00;50416.69;4733383;30;20055;-66
2022/05/03 08:47:30;;;;;;;15.05;9.07;;;;;;;-149.78;100.00;50381.47;4722131;30;20041;-66
2022/05/03 08:50:10;;;;;;;23.25;8.57;;;;;;;-149.78;100.00;50387.34;4716119;30;20045;-66
2022/05/03 08:52:44;;;;;;;19.50;9.13;;;;;;;-149.78;100.00;50385.38;4717056;30;20044;-66
2022/05/03 08:55:11;;;;;;;22.27;9.82;;;;;;;-149.78;100.00;50373.66;4716757;30;20045;-66
2022/05/03 08:57:38;;;;;;;21.40;9.75;;;;;;;-149.78;100.00;50389.31;4716912;30;20091;-66
2022/05/03 09:00:05;;;;;;;19.67;9.55;;;;;;;-149.78;100.00;50397.13;4716781;30;20067;-66
2022/05/03 09:02:33;;;;;;;22.00;9.93;;;;;;;-149.78;100.00;50436.25;4701343;30;20049;-66
2022/05/03 09:05:00;;;;;;;19.90;10.60;;;;;;;-149.78;100.00;50432.31;4716887;30;20036;-66
2022/05/03 09:07:26;;;;;;;26.45;11.38;;;;;;;-149.78;100.00;50397.13;4717000;30;20078;-66
2022/05/03 09:09:54;;;;;;;21.70;10.50;;;;;;;-149.78;100.00;50385.38;4717774;30;20044;-66
2022/05/03 09:12:25;;;;;;;21.60;11.07;;;;;;;-149.78;100.00;50369.75;4713760;30;20386;-66
2022/05/03 09:14:51;;;;;;;21.05;10.75;;;;;;;-149.78;100.00;50385.38;4700274;30;20437;-66
2022/05/03 09:17:43;;;;;;;26.13;12.32;;;;;;;-149.78;100.00;50403.00;4715712;30;20037;-66
2022/05/03 09:23:46;;;;;;;22.63;12.20;;;;;;;-149.78;100.00;50389.31;4696171;30;20042;-67
2022/05/03 09:25:47;;;;;;;22.60;11.63;;;;;;;-149.78;100.00;50389.31;4715622;30;20622;-66
2022/05/03 09:28:12;;;;;;;27.63;12.70;;;;;;;-149.78;100.00;50383.44;4699515;30;20045;-66
2022/05/03 09:30:52;;;;;;;25.83;13.68;;;;;;;-149.78;100.00;50383.44;4715629;30;20036;-66
2022/05/03 09:33:20;;;;;;;24.60;12.68;;;;;;;-149.78;100.00;50412.78;4700690;30;20144;-66
2022/05/03 09:35:47;;;;;;;25.02;12.50;;;;;;;-149.78;100.00;50424.50;4715966;30;20037;-66
2022/05/03 09:38:12;;;;;;;27.23;13.80;;;;;;;-149.78;100.00;50401.03;4716458;30;20055;-67
2022/05/03 09:40:44;;;;;;;25.90;12.32;;;;;;;-149.78;100.00;50358.00;4715606;30;20041;-66
2022/05/03 09:43:10;;;;;;;28.75;14.57;;;;;;;-149.78;100.00;50379.53;4719236;30;20103;-71
2022/05/03 09:45:36;;;;;;;28.38;14.32;;;;;;;-149.78;100.00;50365.84;4716433;30;20037;-71
2022/05/03 09:48:03;;;;;;;22.13;12.07;;;;;;;-149.78;100.00;50397.13;4700845;30;20045;-71
2022/05/03 09:50:41;;;;;;;23.88;13.27;;;;;;;-149.78;100.00;50369.75;4716430;30;20079;-71
2022/05/03 09:53:10;;;;;;;27.45;12.43;;;;;;;-149.78;100.00;50399.09;4715444;30;20076;-71
2022/05/03 09:55:38;;;;;;;21.20;11.98;;;;;;;-149.78;100.00;50410.81;4699824;30;20037;-71
2022/05/03 09:58:11;;;;;;;29.55;13.02;;;;;;;-149.78;100.00;50420.59;4715598;30;20438;-71
2022/05/03 10:00:40;;;;;;;25.45;12.38;;;;;;;-149.78;100.00;50385.38;4716482;30;20041;-71
2022/05/03 10:03:09;;;;;;;31.10;14.73;;;;;;;-149.78;100.00;50424.50;4685934;30;20052;-71
2022/05/03 10:05:39;;;;;;;29.35;14.18;;;;;;;-149.78;100.00;50381.47;4698887;30;20137;-71
2022/05/03 10:08:16;;;;;;;33.15;14.63;;;;;;;-149.78;100.00;50393.22;4712976;30;20564;-70
2022/05/03 10:10:44;;;;;;;24.45;13.98;;;;;;;-149.78;100.00;50377.56;4728035;30;20057;-71
2022/05/03 10:13:12;;;;;;;29.70;14.30;;;;;;;-149.78;100.00;50393.22;4708509;30;20332;-71
2022/05/03 10:21:21;;;;;;;28.90;14.35;;;;;;;-149.78;100.00;50381.47;4714156;30;20083;-70
2022/05/03 10:24:05;;;;;;;26.17;13.98;;;;;;;-149.78;100.00;50393.22;4712774;30;20489;-70
2022/05/03 10:26:52;;;;;;;29.13;14.98;;;;;;;-149.78;100.00;50397.13;4696060;30;20064;-70
2022/05/03 10:29:21;;;;;;;31.15;14.52;;;;;;;-149.78;100.00;50408.84;4714251;30;20041;-70
2022/05/03 10:32:02;;;;;;;32.92;14.70;;;;;;;-149.78;100.00;50367.78;4713463;30;20044;-70
2022/05/03 10:34:40;;;;;;;28.15;14.43;;;;;;;-149.78;100.00;50418.63;4732202;30;20183;-71
2022/05/03 10:37:08;;;;;;;28.85;14.02;;;;;;;-149.78;100.00;50385.38;4733505;30;20409;-70
2022/05/03 10:39:33;;;;;;;32.65;15.30;;;;;;;-149.78;100.00;50404.94;4734576;30;20416;-70
2022/05/03 10:42:02;;;;;;;33.90;15.38;;;;;;;-149.78;100.00;50377.56;4736703;30;20045;-71
2022/05/03 10:44:45;;;;;;;34.25;15.43;;;;;;;-149.78;100.00;50412.78;4736665;30;20131;-71
2022/05/03 10:47:20;;;;;;;32.53;15.95;;;;;;;-149.78;100.00;50385.38;4736594;30;20051;-71
2022/05/03 10:50:13;;;;;;;35.15;16.50;;;;;;;-149.78;100.00;50408.84;4736449;30;20047;-71
2022/05/03 10:52:42;;;;;;;34.88;15.95;;;;;;;-149.78;100.00;50369.75;4736485;30;20374;-71
2022/05/03 10:55:12;;;;;;;33.20;16.80;;;;;;;-149.78;100.00;50389.31;4736565;30;20642;-71
2022/05/03 10:58:15;;;;;;;36.95;17.50;;;;;;;-149.78;100.00;50375.63;4720771;30;20127;-71
2022/05/03 11:01:00;;;;;;;36.47;17.60;;;;;;;-149.78;100.00;50395.16;4733993;30;20118;-71
2022/05/03 11:03:26;;;;;;;33.42;17.88;;;;;;;-149.78;100.00;50373.66;4718951;30;20073;-71
2022/05/03 11:06:40;;;;;;;39.22;18.55;;;;;;;-149.78;100.00;50401.03;4718984;30;20448;-71
2022/05/03 11:11:37;;;;;;;36.97;19.08;;;;;;;-149.78;100.00;50412.78;4699426;30;20064;-71
2022/05/03 11:14:24;;;;;;;39.75;17.98;;;;;;;-149.78;100.00;50369.75;4699714;30;20049;-71
2022/05/03 11:17:05;;;;;;;41.78;20.00;;;;;;;-149.78;100.00;50369.75;4709061;30;20065;-71
2022/05/03 11:19:30;;;;;;;41.97;18.75;;;;;;;-149.78;100.00;50369.75;4723417;30;20106;-71
2022/05/03 11:21:58;;;;;;;40.33;19.95;;;;;;;-149.78;100.00;50389.31;4717222;30;20486;-71
2022/05/03 11:24:32;;;;;;;43.20;20.58;;;;;;;-149.78;100.00;50385.38;4717522;30;20048;-71
2022/05/03 11:27:00;;;;;;;39.72;19.90;;;;;;;-149.78;100.00;50369.75;4715198;30;20512;-71
2022/05/03 11:29:31;;;;;;;36.38;18.25;;;;;;;-149.78;100.00;50373.66;4718074;30;20548;-70
2022/05/03 11:31:59;;;;;;;40.88;19.20;;;;;;;-149.78;100.00;50395.16;4718383;30;20132;-70
2022/05/03 11:34:26;;;;;;;37.15;19.60;;;;;;;-149.78;100.00;50326.72;4733989;30;20036;-71
2022/05/03 11:36:52;;;;;;;39.47;20.20;;;;;;;-149.78;100.00;50381.47;4735607;30;20167;-71
2022/05/03 11:39:19;;;;;;;38.50;19.38;;;;;;;-149.78;100.00;50371.69;4735704;30;20039;-70
2022/05/03 11:41:46;;;;;;;40.88;20.38;;;;;;;-149.78;100.00;50373.66;4719912;30;20102;-71
2022/05/03 11:44:12;;;;;;;43.92;20.85;;;;;;;-149.78;100.00;50373.66;4705519;30;20055;-71
2022/05/03 11:46:39;;;;;;;42.78;20.13;;;;;;;-149.78;100.00;50373.66;4726207;30;20033;-71
2022/05/03 11:49:07;;;;;;;38.08;20.40;;;;;;;-149.78;100.00;50367.78;4717745;30;20040;-70
2022/05/03 11:57:06;;;;;;;43.28;21.85;;;;;;;-149.78;100.00;50397.13;4715866;30;20487;-70